Time;durP1;ratioP1;P1;durP2;ratioP2;P2;SDS_P1;SDS_P2;PMS_P1;PMS_P2;Temp;Humidity;BMP_temperature;BMP_pressure;BME280_temperature;BME280_humidity;BME280_pressure;Samples;Min_cycle;Max_cycle;Signal;HPM_P1;HPM_P2
2023/08/19 00:01:05;;;;;;;18.02;13.48;;;;;;;21.97;72.48;100815.03;4900783;29;20048;-84
2023/08/19 00:03:32;;;;;;;16.47;13.23;;;;;;;21.89;72.13;100795.06;4901427;29;20037;-82
2023/08/19 00:06:04;;;;;;;18.60;12.85;;;;;;;21.67;72.10;100772.97;4911207;29;20400;-84
2023/08/19 00:08:30;;;;;;;17.15;13.93;;;;;;;21.39;72.42;100733.47;4915085;29;20048;-84
2023/08/19 00:10:57;;;;;;;19.40;14.18;;;;;;;21.72;71.95;100807.22;4899890;29;20072;-85
2023/08/19 00:13:23;;;;;;;19.23;13.63;;;;;;;20.97;72.30;100690.09;4901328;29;20048;-85
2023/08/19 00:15:50;;;;;;;20.33;12.95;;;;;;;21.63;72.30;100805.78;4901755;29;20101;-84
2023/08/19 00:18:16;;;;;;;18.02;13.63;;;;;;;20.46;71.82;100613.50;4900845;29;20119;-84
2023/08/19 00:20:43;;;;;;;19.15;12.90;;;;;;;21.19;72.21;100729.78;4885930;29;20048;-84
2023/08/19 00:23:09;;;;;;;19.00;13.23;;;;;;;20.63;72.04;100659.59;4900516;29;20126;-85
2023/08/19 00:25:36;;;;;;;19.63;12.50;;;;;;;20.45;71.99;100626.78;4883958;29;20507;-85
2023/08/19 00:28:04;;;;;;;14.88;12.18;;;;;;;21.47;72.14;100805.50;4909683;29;20045;-83
2023/08/19 00:30:30;;;;;;;17.65;12.70;;;;;;;21.04;72.29;100727.75;4897468;29;20044;-84
2023/08/19 00:32:56;;;;;;;17.67;12.10;;;;;;;21.42;72.25;100802.16;4899392;29;20056;-83
2023/08/19 00:35:22;;;;;;;17.30;12.57;;;;;;;20.72;72.10;100688.31;4914493;29;20081;-83
2023/08/19 00:37:48;;;;;;;17.38;13.07;;;;;;;21.26;72.08;100782.50;4882689;29;20037;-84
2023/08/19 00:40:17;;;;;;;14.90;11.73;;;;;;;20.63;71.86;100683.41;4899789;29;20100;-82
2023/08/19 00:42:45;;;;;;;14.67;12.03;;;;;;;21.10;72.28;100767.19;4899945;29;20103;-84
2023/08/19 00:45:11;;;;;;;17.42;12.93;;;;;;;20.66;72.23;100704.41;4878886;29;20297;-84
2023/08/19 00:47:39;;;;;;;20.15;13.32;;;;;;;21.01;71.87;100765.75;4903883;29;20037;-83
2023/08/19 00:50:09;;;;;;;16.50;11.93;;;;;;;21.16;71.97;100795.22;4902473;29;20052;-84
2023/08/19 00:52:37;;;;;;;14.65;11.43;;;;;;;20.76;72.46;100724.34;4889650;29;20048;-84
2023/08/19 00:55:06;;;;;;;17.92;12.55;;;;;;;20.87;72.41;100753.03;4896457;29;20045;-85
2023/08/19 00:57:37;;;;;;;14.93;11.23;;;;;;;20.58;72.64;100704.69;4897975;29;20085;-83
2023/08/19 01:00:05;;;;;;;14.10;11.52;;;;;;;21.03;72.20;100787.75;4888246;29;20475;-80
2023/08/19 01:02:32;;;;;;;19.15;11.75;;;;;;;20.47;72.32;100705.06;4874178;29;20041;-80
2023/08/19 01:04:59;;;;;;;16.67;12.35;;;;;;;20.90;72.69;100763.53;4881507;29;20095;-80
2023/08/19 01:07:41;;;;;;;16.35;12.57;;;;;;;20.83;72.54;100751.44;4897379;29;20136;-81
2023/08/19 01:10:22;;;;;;;18.17;12.73;;;;;;;20.92;72.34;100769.63;4895700;29;20044;-82
2023/08/19 01:12:54;;;;;;;15.88;12.00;;;;;;;20.89;72.50;100769.72;4909881;29;20208;-82
2023/08/19 01:15:24;;;;;;;18.27;12.32;;;;;;;20.67;72.57;100735.22;4894850;29;20092;-83
2023/08/19 01:17:52;;;;;;;15.37;12.03;;;;;;;20.79;72.40;100762.19;4875723;29;20535;-84
2023/08/19 01:20:24;;;;;;;17.92;13.48;;;;;;;20.42;72.49;100696.44;4897210;29;20040;-82
2023/08/19 01:23:03;;;;;;;20.17;14.52;;;;;;;20.54;72.88;100729.50;4892825;29;20109;-84
2023/08/19 01:25:31;;;;;;;21.63;15.80;;;;;;;20.78;72.55;100777.16;4904830;29;20057;-81
2023/08/19 01:28:02;;;;;;;21.88;15.52;;;;;;;20.64;72.72;100759.13;4897260;29;20047;-81
2023/08/19 01:30:30;;;;;;;19.23;14.18;;;;;;;20.52;72.39;100735.78;4893333;29;20545;-82
2023/08/19 01:32:57;;;;;;;18.60;15.32;;;;;;;20.53;72.51;100746.28;4904135;29;20515;-82
2023/08/19 01:35:24;;;;;;;18.02;13.98;;;;;;;20.36;72.76;100719.59;4905869;29;20080;-81
2023/08/19 01:37:57;;;;;;;21.50;13.98;;;;;;;20.67;72.81;100777.53;4888951;29;20117;-80
2023/08/19 01:40:27;;;;;;;19.85;15.15;;;;;;;20.14;72.88;100700.09;4894022;29;20053;-80
2023/08/19 01:42:54;;;;;;;23.25;15.45;;;;;;;20.55;72.71;100767.41;4901451;29;20059;-80
2023/08/19 01:45:23;;;;;;;17.13;14.57;;;;;;;20.50;73.07;100758.75;4886792;29;20048;-80
2023/08/19 01:47:53;;;;;;;19.55;14.43;;;;;;;20.49;73.43;100754.38;4891426;29;20044;-81
2023/08/19 01:50:20;;;;;;;20.45;14.60;;;;;;;20.04;72.98;100676.69;4891852;29;20499;-80
2023/08/19 01:52:46;;;;;;;18.23;14.75;;;;;;;20.58;72.95;100778.72;4905672;29;20096;-80
2023/08/19 01:55:12;;;;;;;17.70;14.57;;;;;;;20.22;72.91;100728.00;4889963;29;20108;-80
2023/08/19 01:57:41;;;;;;;18.48;14.43;;;;;;;20.54;73.27;100776.25;4892033;29;20036;-80
2023/08/19 02:00:07;;;;;;;20.55;14.10;;;;;;;19.98;73.15;100690.94;4873625;29;20528;-85
2023/08/19 02:02:42;;;;;;;15.85;13.02;;;;;;;20.54;73.52;100785.03;4895759;29;20502;-85
2023/08/19 02:05:13;;;;;;;15.48;12.65;;;;;;;20.33;73.16;100762.84;4896813;29;20108;-85
2023/08/19 02:07:39;;;;;;;14.50;12.93;;;;;;;20.20;73.31;100728.06;4881911;29;20068;-84
2023/08/19 02:10:07;;;;;;;15.35;12.40;;;;;;;20.46;73.37;100777.38;4894777;29;20040;-82
2023/08/19 02:12:34;;;;;;;19.17;13.63;;;;;;;20.32;73.05;100750.56;4917199;29;20048;-82
2023/08/19 02:15:01;;;;;;;20.85;13.98;;;;;;;19.90;73.37;100685.06;4888360;29;20048;-82
2023/08/19 02:17:47;;;;;;;14.57;12.38;;;;;;;20.47;73.42;100796.75;4894059;29;20186;-83
2023/08/19 02:20:13;;;;;;;18.42;12.23;;;;;;;19.97;73.55;100710.38;4899576;29;20558;-82
2023/08/19 02:22:40;;;;;;;15.73;12.23;;;;;;;20.47;73.20;100797.59;4919799;29;20051;-83
2023/08/19 02:25:09;;;;;;;15.45;12.38;;;;;;;20.45;73.25;100790.66;4903709;29;20123;-83
2023/08/19 02:27:38;;;;;;;14.15;11.63;;;;;;;20.47;73.42;100802.88;4909315;29;20131;-83
2023/08/19 02:30:07;;;;;;;15.65;12.18;;;;;;;20.34;73.34;100774.28;4871462;29;20052;-84
2023/08/19 02:32:38;;;;;;;19.73;12.07;;;;;;;20.32;73.44;100750.56;4917510;29;20467;-81
2023/08/19 02:35:04;;;;;;;12.52;10.50;;;;;;;20.33;73.37;100747.00;4908111;29;20044;-83
2023/08/19 02:37:30;;;;;;;15.98;11.77;;;;;;;20.29;73.47;100730.41;4916600;29;20045;-82
2023/08/19 02:39:56;;;;;;;17.05;12.15;;;;;;;20.70;73.47;100781.84;4893275;29;20040;-83
2023/08/19 02:42:22;;;;;;;16.48;12.25;;;;;;;20.80;73.40;100799.13;4881433;29;20044;-85
2023/08/19 02:44:49;;;;;;;15.20;10.95;;;;;;;20.41;73.09;100734.38;4897037;29;20068;-87
2023/08/19 02:47:16;;;;;;;20.75;11.05;;;;;;;20.82;73.37;100797.31;4896551;29;20096;-86
2023/08/19 02:49:43;;;;;;;18.90;12.32;;;;;;;20.24;72.96;100694.47;4877241;29;20041;-85
2023/08/19 02:52:09;;;;;;;18.15;12.98;;;;;;;20.54;72.99;100740.09;4887399;29;20103;-86
2023/08/19 02:54:35;;;;;;;17.42;12.73;;;;;;;20.74;72.69;100764.97;4904608;29;20154;-84
2023/08/19 02:57:02;;;;;;;18.92;13.38;;;;;;;21.06;73.06;100808.81;4892496;29;20209;-84
2023/08/19 02:59:29;;;;;;;15.25;13.07;;;;;;;20.43;72.96;100684.97;4891189;29;20075;-86
2023/08/19 03:01:57;;;;;;;15.38;12.35;;;;;;;20.66;72.77;100706.19;4893763;29;20108;-84
2023/08/19 03:04:23;;;;;;;14.77;12.70;;;;;;;21.03;72.32;100758.63;4910030;29;20040;-84
2023/08/19 03:06:51;;;;;;;17.58;13.00;;;;;;;21.25;72.37;100794.00;4898409;29;20048;-84
2023/08/19 03:09:20;;;;;;;18.35;14.23;;;;;;;21.28;72.00;100784.19;4880896;29;20089;-85
2023/08/19 03:11:46;;;;;;;17.45;13.65;;;;;;;21.43;71.95;100803.88;4894537;29;20045;-83
2023/08/19 03:14:15;;;;;;;17.45;12.32;;;;;;;21.06;71.81;100731.19;4887766;29;20049;-82
2023/08/19 03:16:41;;;;;;;17.95;13.07;;;;;;;21.59;72.11;100804.16;4887632;29;20123;-80
2023/08/19 03:19:08;;;;;;;17.17;13.02;;;;;;;21.71;71.65;100815.25;4891961;29;20040;-81
2023/08/19 03:21:35;;;;;;;17.73;12.60;;;;;;;21.74;71.54;100802.72;4893626;29;20304;-81
2023/08/19 03:24:00;;;;;;;14.20;11.10;;;;;;;21.72;71.42;100774.59;4894383;29;20052;-80
2023/08/19 03:26:27;;;;;;;13.70;10.95;;;;;;;21.95;71.15;100794.84;4892553;29;20060;-82
2023/08/19 03:28:56;;;;;;;16.52;10.77;;;;;;;21.87;70.71;100765.13;4875307;29;20074;-82
2023/08/19 03:31:26;;;;;;;15.82;10.60;;;;;;;21.74;70.93;100727.69;4899359;29;20032;-82
2023/08/19 03:33:53;;;;;;;15.00;10.65;;;;;;;22.32;70.41;100803.06;4910758;29;20451;-82
2023/08/19 03:36:22;;;;;;;18.35;11.70;;;;;;;22.25;69.84;100789.19;4891216;29;20048;-82
2023/08/19 03:38:48;;;;;;;14.82;11.30;;;;;;;22.18;69.51;100754.13;4895345;29;20431;-81
2023/08/19 03:41:14;;;;;;;13.02;11.63;;;;;;;22.33;69.62;100780.91;4899162;29;20056;-83
2023/08/19 03:43:40;;;;;;;14.05;10.93;;;;;;;22.26;69.30;100765.25;4898879;29;20047;-83
2023/08/19 03:46:09;;;;;;;16.98;11.80;;;;;;;22.36;69.02;100779.00;4911032;29;20123;-84
2023/08/19 03:48:39;;;;;;;14.45;10.90;;;;;;;22.64;68.67;100803.47;4896450;29;20119;-83
2023/08/19 03:51:05;;;;;;;17.75;10.73;;;;;;;22.70;68.39;100804.09;4915891;29;20468;-82
2023/08/19 03:53:31;;;;;;;16.10;10.88;;;;;;;22.52;68.61;100757.13;4893618;29;20548;-83
2023/08/19 03:55:59;;;;;;;13.98;10.02;;;;;;;22.92;68.33;100815.53;4893722;29;20486;-82
2023/08/19 03:58:25;;;;;;;14.57;11.00;;;;;;;22.71;67.75;100762.50;4878471;29;20412;-82
2023/08/19 04:00:51;;;;;;;14.20;10.65;;;;;;;23.02;67.67;100800.94;4896319;29;20051;-81
2023/08/19 04:03:25;;;;;;;15.68;10.48;;;;;;;23.26;67.37;100808.75;4910807;29;20041;-82
2023/08/19 04:05:51;;;;;;;14.90;10.27;;;;;;;23.13;67.12;100766.78;4914353;29;20088;-82
2023/08/19 04:08:17;;;;;;;13.77;9.43;;;;;;;23.37;66.91;100793.16;4900437;29;20523;-82
2023/08/19 04:10:43;;;;;;;13.63;10.50;;;;;;;23.52;67.03;100791.59;4898424;29;20088;-82
2023/08/19 04:13:16;;;;;;;16.13;9.65;;;;;;;23.38;66.06;100731.16;4911453;29;20044;-82
2023/08/19 04:15:42;;;;;;;14.63;9.30;;;;;;;23.41;66.04;100715.09;4895295;29;20044;-83
2023/08/19 04:18:12;;;;;;;13.90;9.35;;;;;;;23.71;65.75;100717.19;4896509;29;20073;-84
2023/08/19 04:20:39;;;;;;;14.43;8.93;;;;;;;24.34;64.90;100786.72;4894196;29;20096;-82
2023/08/19 04:23:06;;;;;;;13.65;8.98;;;;;;;24.76;64.63;100806.75;4899875;29;20048;-82
2023/08/19 04:25:32;;;;;;;12.50;8.55;;;;;;;24.75;63.93;100781.09;4902281;29;20060;-84
2023/08/19 04:27:58;;;;;;;14.60;9.35;;;;;;;25.04;63.64;100789.31;4899285;29;20571;-82
2023/08/19 04:30:24;;;;;;;13.57;9.60;;;;;;;24.99;62.67;100772.72;4883432;29;20053;-84
2023/08/19 04:32:50;;;;;;;11.95;9.93;;;;;;;25.06;62.11;100763.47;4881624;29;20108;-84
2023/08/19 04:35:17;;;;;;;11.52;9.38;;;;;;;25.03;61.61;100746.81;4879138;29;20051;-84
2023/08/19 04:37:43;;;;;;;10.80;9.25;;;;;;;24.52;60.79;100665.25;4869217;29;20037;-84
2023/08/19 04:40:11;;;;;;;11.05;9.38;;;;;;;25.37;60.60;100790.22;4899941;29;20471;-83
2023/08/19 04:42:41;;;;;;;11.65;9.18;;;;;;;24.99;60.58;100706.19;4890310;29;20099;-84
2023/08/19 04:45:09;;;;;;;9.43;8.43;;;;;;;25.76;60.09;100804.94;4890073;29;20045;-82
2023/08/19 04:47:38;;;;;;;10.63;9.10;;;;;;;25.81;59.73;100786.88;4904568;29;20101;-82
2023/08/19 04:50:08;;;;;;;12.85;8.73;;;;;;;25.88;59.68;100762.53;4879467;29;20143;-85
2023/08/19 04:52:35;;;;;;;11.65;8.77;;;;;;;26.46;59.19;100801.78;4915366;29;20076;-83
2023/08/19 04:55:04;;;;;;;12.20;9.98;;;;;;;26.22;58.35;100729.44;4907923;29;20056;-85
2023/08/19 04:57:30;;;;;;;12.93;9.57;;;;;;;26.73;57.55;100779.72;4904952;29;20045;-85
2023/08/19 04:59:56;;;;;;;11.32;9.13;;;;;;;26.79;57.02;100777.63;4896517;29;20040;-85
2023/08/19 05:02:22;;;;;;;10.43;9.05;;;;;;;26.75;56.62;100737.78;4910880;29;20045;-85
2023/08/19 05:04:48;;;;;;;14.88;8.63;;;;;;;27.12;56.33;100760.47;4896886;29;20120;-84
2023/08/19 05:07:14;;;;;;;11.50;8.93;;;;;;;27.15;55.70;100718.38;4895427;29;20045;-83
2023/08/19 05:09:41;;;;;;;11.65;9.18;;;;;;;27.14;55.28;100683.78;4901590;29;20059;-82
2023/08/19 05:12:10;;;;;;;10.57;8.40;;;;;;;28.17;54.65;100809.00;4907808;29;20041;-83
2023/08/19 05:14:36;;;;;;;10.52;8.70;;;;;;;28.36;54.20;100793.41;4899441;29;20041;-84
2023/08/19 05:17:03;;;;;;;11.85;9.18;;;;;;;28.45;53.93;100773.16;4882464;29;20051;-85
2023/08/19 05:19:31;;;;;;;9.60;8.60;;;;;;;28.07;52.88;100664.28;4900821;29;20052;-85
2023/08/19 05:21:57;;;;;;;10.65;8.60;;;;;;;29.00;52.33;100755.06;4906194;29;20085;-84
2023/08/19 05:24:23;;;;;;;11.50;8.57;;;;;;;29.72;52.02;100796.34;4895979;29;20056;-86
2023/08/19 05:26:59;;;;;;;9.75;8.30;;;;;;;30.60;50.74;100802.31;4888946;29;20092;-85
2023/08/19 05:29:34;;;;;;;10.05;7.95;;;;;;;31.19;49.09;100737.75;4918229;29;20143;-86
2023/08/19 05:32:00;;;;;;;11.68;7.85;;;;;;;31.85;46.94;100772.66;4871396;29;20045;-87
2023/08/19 05:34:30;;;;;;;10.93;7.88;;;;;;;32.63;46.07;100782.25;4900495;29;20052;-87
2023/08/19 05:36:56;;;;;;;8.27;7.47;;;;;;;33.55;45.02;100780.47;4896159;29;20052;-88
2023/08/19 05:39:21;;;;;;;9.40;7.82;;;;;;;34.17;42.89;100792.88;4910958;29;20139;-87
2023/08/19 05:41:47;;;;;;;8.80;7.90;;;;;;;33.26;41.59;100645.59;4875905;29;20036;-86
2023/08/19 05:44:14;;;;;;;10.90;7.88;;;;;;;33.93;41.32;100756.38;4884128;29;20132;-85
2023/08/19 05:46:40;;;;;;;8.38;7.57;;;;;;;33.71;41.30;100701.69;4911167;29;20109;-84
2023/08/19 05:49:06;;;;;;;8.40;7.45;;;;;;;34.62;40.37;100788.66;4893218;29;20043;-83
2023/08/19 05:51:34;;;;;;;8.40;7.40;;;;;;;34.45;39.61;100747.94;4892781;29;20048;-80
2023/08/19 05:54:01;;;;;;;8.05;7.18;;;;;;;34.75;39.61;100791.03;4879846;29;20044;-80
2023/08/19 05:56:27;;;;;;;11.77;8.02;;;;;;;35.37;38.62;100764.28;4885250;29;20062;-85
2023/08/19 05:58:54;;;;;;;9.18;7.35;;;;;;;36.18;37.61;100769.78;4873426;29;20548;-85
2023/08/19 06:01:20;;;;;;;9.48;7.32;;;;;;;36.79;36.56;100740.00;4906509;29;20094;-84
2023/08/19 06:03:45;;;;;;;11.48;7.00;;;;;;;37.86;34.96;100762.97;4894777;29;21031;-82
2023/08/19 06:06:11;;;;;;;8.60;6.63;;;;;;;38.34;34.18;100744.13;4889253;29;20045;-83
2023/08/19 06:08:37;;;;;;;8.13;6.38;;;;;;;39.74;32.68;100764.38;4890907;29;20047;-82
2023/08/19 06:11:06;;;;;;;10.32;6.32;;;;;;;40.77;29.94;100777.53;4895689;29;20059;-85
2023/08/19 06:13:37;;;;;;;6.88;6.28;;;;;;;41.54;29.46;100780.78;4875317;29;20041;-85
2023/08/19 06:16:06;;;;;;;7.50;6.78;;;;;;;42.03;28.62;100735.41;4916090;29;20063;-83
2023/08/19 06:18:32;;;;;;;6.82;6.22;;;;;;;42.80;27.16;100748.31;4884220;29;20041;-85
2023/08/19 06:21:03;;;;;;;7.00;6.28;;;;;;;43.40;26.59;100764.91;4892217;29;20072;-85
2023/08/19 06:23:29;;;;;;;7.72;7.00;;;;;;;44.02;25.69;100786.66;4906107;29;20518;-84
2023/08/19 06:25:55;;;;;;;6.35;5.75;;;;;;;44.45;25.03;100792.78;4907266;29;20048;-85
2023/08/19 06:28:21;;;;;;;7.88;6.90;;;;;;;43.85;24.61;100736.06;4909470;29;20064;-83
2023/08/19 06:30:48;;;;;;;8.18;6.80;;;;;;;44.14;24.32;100786.03;4878202;29;20063;-88
2023/08/19 06:33:15;;;;;;;8.45;6.65;;;;;;;44.13;23.91;100746.84;4887762;29;20045;-86
2023/08/19 06:35:48;;;;;;;7.40;6.68;;;;;;;44.29;23.44;100752.91;4893676;29;20173;-85
2023/08/19 06:38:23;;;;;;;8.07;6.65;;;;;;;44.70;22.93;100792.88;4906661;29;20559;-87
2023/08/19 06:41:02;;;;;;;7.03;6.43;;;;;;;44.26;22.71;100743.19;4897245;29;20135;-87
2023/08/19 06:43:30;;;;;;;7.83;7.07;;;;;;;44.80;22.81;100743.03;4894143;29;20040;-87
2023/08/19 06:46:11;;;;;;;;;;;;;;;;;;;;;
2023/08/19 06:48:47;;;;;;;7.00;6.38;;;;;;;45.80;21.76;100769.03;4900277;29;20069;-86
2023/08/19 06:51:14;;;;;;;7.30;6.60;;;;;;;45.22;21.59;100701.44;4894157;29;20040;-86
2023/08/19 06:53:40;;;;;;;9.38;6.45;;;;;;;44.66;21.93;100688.25;4889922;29;20045;-87
2023/08/19 06:56:36;;;;;;;7.63;6.93;;;;;;;44.71;22.34;100800.06;4891463;29;20055;-86
2023/08/19 06:59:14;;;;;;;8.65;7.20;;;;;;;43.61;22.82;100744.72;4888488;29;20075;-87
2023/08/19 07:01:50;;;;;;;8.27;7.40;;;;;;;42.29;23.68;100729.25;4898153;29;20075;-87
2023/08/19 07:04:32;;;;;;;9.50;7.10;;;;;;;41.54;24.77;100713.34;4883234;29;20053;-87
2023/08/19 07:07:00;;;;;;;8.50;7.70;;;;;;;41.46;25.18;100710.75;4897090;29;20119;-86
2023/08/19 07:09:29;;;;;;;11.05;7.50;;;;;;;41.66;25.01;100740.16;4891272;29;20523;-86
2023/08/19 07:11:59;;;;;;;7.97;7.18;;;;;;;41.69;25.12;100739.75;4899473;29;20160;-86
2023/08/19 07:14:29;;;;;;;8.75;7.47;;;;;;;41.29;25.26;100729.28;4875660;29;20523;-87
2023/08/19 07:17:03;;;;;;;8.02;7.25;;;;;;;41.07;25.85;100748.31;4884522;29;20037;-86
2023/08/19 07:19:38;;;;;;;8.52;7.20;;;;;;;42.20;25.50;100746.88;4908468;29;20102;-86
2023/08/19 07:22:08;;;;;;;7.30;6.63;;;;;;;43.10;24.23;100754.28;4876647;29;20064;-86
2023/08/19 07:24:34;;;;;;;;;;;;;;;44.28;23.44;100795.91;4895145;29;20503;-83
2023/08/19 07:27:05;;;;;;;7.57;6.78;;;;;;;45.40;22.94;100781.19;4888422;29;19926;-84
2023/08/19 07:29:31;;;;;;;8.65;7.68;;;;;;;45.65;21.98;100694.38;4886769;29;20071;-81
2023/08/19 07:31:58;;;;;;;8.57;6.35;;;;;;;46.49;20.74;100756.34;4889365;29;20434;-81
2023/08/19 07:34:24;;;;;;;8.20;6.30;;;;;;;47.04;20.38;100758.19;4862161;29;20559;-84
2023/08/19 07:36:53;;;;;;;7.95;6.95;;;;;;;47.30;19.75;100714.84;4879076;29;20049;-79
2023/08/19 07:39:22;;;;;;;11.27;6.60;;;;;;;48.35;19.23;100763.94;4872110;29;20040;-85
2023/08/19 07:41:53;;;;;;;7.43;6.35;;;;;;;49.19;18.32;100734.13;4898905;29;20499;-84
2023/08/19 07:44:20;;;;;;;6.63;6.03;;;;;;;49.82;18.42;100758.94;4912196;29;20040;-85
2023/08/19 07:46:49;;;;;;;7.63;6.43;;;;;;;50.42;16.93;100756.47;4890632;29;20044;-84
2023/08/19 07:49:15;;;;;;;8.25;6.45;;;;;;;50.38;16.54;100727.63;4896544;29;20147;-80
2023/08/19 07:51:41;;;;;;;7.03;6.35;;;;;;;50.87;16.83;100724.06;4888630;29;20036;-79
2023/08/19 07:54:07;;;;;;;7.35;6.32;;;;;;;51.68;15.91;100744.44;4890436;29;20041;-83
2023/08/19 07:56:33;;;;;;;6.85;6.18;;;;;;;51.36;15.46;100710.13;4901399;29;20067;-77
2023/08/19 07:58:59;;;;;;;11.73;6.47;;;;;;;49.94;16.26;100767.13;4871873;29;20115;-82
2023/08/19 08:01:25;;;;;;;6.97;6.38;;;;;;;47.20;17.65;100716.28;4888385;29;20596;-84
2023/08/19 08:03:51;;;;;;;7.32;6.72;;;;;;;45.31;19.65;100732.25;4878895;29;20049;-83
2023/08/19 08:06:17;;;;;;;8.68;7.40;;;;;;;43.95;20.12;100670.75;4904424;29;20435;-83
2023/08/19 08:08:43;;;;;;;8.30;7.43;;;;;;;43.57;21.44;100682.34;4884019;29;20041;-82
2023/08/19 08:11:09;;;;;;;10.90;7.45;;;;;;;45.30;20.60;100736.06;4906712;29;20092;-80
2023/08/19 08:13:35;;;;;;;9.25;8.40;;;;;;;45.93;20.13;100756.28;4894748;29;20052;-87
2023/08/19 08:16:02;;;;;;;9.55;8.55;;;;;;;44.18;20.55;100626.41;4897255;29;20063;-84
2023/08/19 08:18:28;;;;;;;13.75;12.43;;;;;;;43.61;21.23;100709.09;4900582;29;20037;-83
2023/08/19 08:20:55;;;;;;;9.73;8.30;;;;;;;42.38;22.21;100656.16;4902179;29;20044;-81
2023/08/19 08:23:21;;;;;;;9.32;8.15;;;;;;;42.20;22.69;100767.88;4905094;29;20135;-81
2023/08/19 08:25:49;;;;;;;12.15;7.88;;;;;;;42.39;23.59;100766.38;4885424;29;20104;-80
2023/08/19 08:28:24;;;;;;;9.68;7.43;;;;;;;43.75;21.87;100646.97;4887800;29;20740;-81
2023/08/19 08:30:51;;;;;;;8.63;7.85;;;;;;;46.05;19.94;100717.91;4879982;29;20799;-81
2023/08/19 08:33:20;;;;;;;10.93;9.75;;;;;;;47.51;18.68;100688.66;4873337;29;20036;-81
2023/08/19 08:35:46;;;;;;;15.60;14.02;;;;;;;48.55;18.13;100716.63;4869766;29;20049;-80
2023/08/19 08:38:12;;;;;;;11.40;9.80;;;;;;;49.11;17.39;100693.94;4877879;29;20063;-81
2023/08/19 08:40:38;;;;;;;15.60;14.18;;;;;;;50.15;15.89;100718.50;4885883;29;20088;-81
2023/08/19 08:43:16;;;;;;;16.15;14.65;;;;;;;51.03;15.71;100728.66;4893926;29;20123;-79
2023/08/19 08:45:44;;;;;;;9.25;7.88;;;;;;;51.31;15.65;100751.63;4876926;29;20064;-80
2023/08/19 08:48:16;;;;;;;14.73;13.43;;;;;;;51.90;14.89;100735.16;4879462;29;20040;-82
2023/08/19 08:50:44;;;;;;;9.20;8.30;;;;;;;51.74;14.42;100696.25;4893255;29;20048;-78
2023/08/19 08:53:14;;;;;;;10.68;9.63;;;;;;;51.94;14.59;100742.69;4877006;29;20041;-82
2023/08/19 08:55:42;;;;;;;8.23;7.53;;;;;;;52.28;13.72;100688.75;4905132;29;20048;-81
2023/08/19 08:58:09;;;;;;;11.05;9.45;;;;;;;52.77;12.95;100700.56;4900199;29;20171;-82
2023/08/19 09:00:55;;;;;;;10.57;8.95;;;;;;;53.30;12.97;100689.22;4907106;29;20081;-83
2023/08/19 09:03:34;;;;;;;8.18;7.47;;;;;;;52.18;12.47;100713.69;4892552;29;20056;-81
2023/08/19 09:06:10;;;;;;;8.45;7.75;;;;;;;51.79;13.47;100703.75;4885519;29;20127;-78
2023/08/19 09:08:45;;;;;;;8.48;7.75;;;;;;;52.11;12.84;100650.97;4885781;29;20040;-78
2023/08/19 09:11:13;;;;;;;9.52;8.48;;;;;;;53.27;12.48;100729.53;4871355;29;20131;-81
2023/08/19 09:13:42;;;;;;;11.60;7.80;;;;;;;53.27;12.49;100671.16;4890735;29;20131;-79
2023/08/19 09:16:11;;;;;;;9.35;7.78;;;;;;;53.31;11.96;100691.69;4889726;29;20392;-78
2023/08/19 09:18:38;;;;;;;8.73;7.93;;;;;;;51.03;12.77;100669.66;4875226;29;20044;-79
2023/08/19 09:21:06;;;;;;;8.80;8.00;;;;;;;48.25;14.05;100690.88;4889381;29;20036;-83
2023/08/19 09:23:32;;;;;;;8.70;7.80;;;;;;;47.73;15.40;100701.84;4896567;29;20048;-85
2023/08/19 09:25:59;;;;;;;12.30;10.98;;;;;;;46.81;15.84;100626.84;4895869;29;20052;-84
2023/08/19 09:28:25;;;;;;;11.60;10.40;;;;;;;45.90;16.53;100668.78;4877205;29;20064;-84
2023/08/19 09:30:54;;;;;;;10.43;9.43;;;;;;;46.02;17.38;100665.03;4877229;29;20045;-85
2023/08/19 09:33:23;;;;;;;13.63;10.10;;;;;;;47.67;16.68;100717.44;4877963;29;20067;-81
2023/08/19 09:36:02;;;;;;;11.00;8.18;;;;;;;49.00;15.67;100666.13;4892707;29;20041;-87
2023/08/19 09:38:33;;;;;;;8.80;7.72;;;;;;;50.24;14.87;100689.28;4902445;29;20065;-84
2023/08/19 09:41:02;;;;;;;8.75;7.88;;;;;;;51.15;13.58;100675.84;4885423;29;20100;-87
2023/08/19 09:43:29;;;;;;;8.60;7.23;;;;;;;51.68;13.47;100644.66;4919406;29;20496;-89
2023/08/19 09:46:00;;;;;;;8.35;7.50;;;;;;;51.58;13.19;100633.50;4904643;29;20822;-88
2023/08/19 09:48:27;;;;;;;8.48;7.65;;;;;;;51.61;12.81;100678.16;4909375;29;20032;-86
2023/08/19 09:50:53;;;;;;;8.82;7.97;;;;;;;51.72;13.09;100676.28;4889713;29;20049;-86
2023/08/19 09:53:19;;;;;;;10.23;7.47;;;;;;;51.12;12.76;100665.28;4872028;29;20060;-84
2023/08/19 09:55:47;;;;;;;8.38;7.47;;;;;;;49.14;13.93;100650.09;4893849;29;20056;-83
2023/08/19 09:58:13;;;;;;;7.93;6.80;;;;;;;47.59;15.22;100644.22;4904531;29;20040;-87
2023/08/19 10:00:40;;;;;;;8.07;7.35;;;;;;;47.68;15.47;100635.59;4920370;29;20052;-87
2023/08/19 10:03:22;;;;;;;8.10;7.43;;;;;;;48.43;14.69;100627.53;4903207;29;20056;-90
2023/08/19 10:05:55;;;;;;;8.82;8.00;;;;;;;48.57;14.57;100595.78;4885143;29;20066;-86
2023/08/19 10:08:26;;;;;;;8.60;7.88;;;;;;;47.70;14.71;100637.03;4900035;29;20066;-86
2023/08/19 10:10:52;;;;;;;9.18;7.50;;;;;;;46.84;15.65;100654.75;4879779;29;20618;-86
2023/08/19 10:13:22;;;;;;;10.18;7.65;;;;;;;47.16;15.35;100599.41;4904178;29;20040;-84
2023/08/19 10:15:55;;;;;;;11.60;7.60;;;;;;;46.86;15.11;100574.72;4889034;29;20065;-93
2023/08/19 10:18:31;;;;;;;8.80;8.10;;;;;;;46.14;15.80;100629.41;4891943;29;20041;-85
2023/08/19 10:21:05;;;;;;;8.18;7.47;;;;;;;46.14;16.37;100656.91;4887447;29;20044;-79
2023/08/19 10:23:45;;;;;;;8.18;7.38;;;;;;;46.89;15.92;100679.66;4899562;29;20060;-85
2023/08/19 10:26:12;;;;;;;9.20;8.05;;;;;;;46.30;15.54;100569.34;4915240;29;20894;-78
2023/08/19 10:28:39;;;;;;;8.63;7.63;;;;;;;46.95;15.60;100647.59;4886158;29;20063;-85
2023/08/19 10:31:15;;;;;;;11.68;7.88;;;;;;;47.69;15.31;100634.53;4893118;29;20566;-77
2023/08/19 10:33:44;;;;;;;10.98;7.55;;;;;;;48.28;14.92;100686.81;4856969;29;20040;-76
2023/08/19 10:36:17;;;;;;;9.65;8.50;;;;;;;47.99;15.43;100609.56;4885548;29;20528;-82
2023/08/19 10:38:46;;;;;;;9.55;7.82;;;;;;;47.47;14.60;100574.50;4893311;29;20060;-77
2023/08/19 10:41:24;;;;;;;9.45;8.30;;;;;;;46.13;15.78;100652.47;4888069;29;20140;-77
2023/08/19 10:43:57;;;;;;;11.20;8.30;;;;;;;44.39;16.76;100676.50;4903106;29;20092;-77
2023/08/19 10:46:25;;;;;;;8.55;7.75;;;;;;;42.70;18.75;100663.88;4906678;29;20032;-75
2023/08/19 10:48:52;;;;;;;9.10;8.20;;;;;;;40.99;19.72;100595.66;4876800;29;20191;-74
2023/08/19 10:51:18;;;;;;;8.52;7.35;;;;;;;40.92;20.48;100677.44;4886447;29;20051;-76
2023/08/19 10:54:06;;;;;;;8.63;7.82;;;;;;;40.13;21.35;100618.97;4886953;29;20056;-78
2023/08/19 10:56:32;;;;;;;12.88;8.13;;;;;;;39.78;21.40;100620.56;4902872;29;20048;-77
2023/08/19 10:58:59;;;;;;;8.48;7.68;;;;;;;39.57;21.82;100661.06;4903361;29;20043;-78
2023/08/19 11:01:32;;;;;;;11.43;8.25;;;;;;;38.81;23.12;100655.44;4905198;29;20044;-78
2023/08/19 11:03:58;;;;;;;9.35;8.00;;;;;;;38.39;23.79;100641.25;4906610;29;20040;-77
2023/08/19 11:06:30;;;;;;;8.38;7.45;;;;;;;37.63;23.89;100570.97;4872777;29;20527;-77
2023/08/19 11:09:00;;;;;;;9.25;7.60;;;;;;;38.03;24.12;100661.53;4891000;29;20510;-77
2023/08/19 11:11:26;;;;;;;8.77;7.68;;;;;;;37.32;24.72;100564.38;4885314;29;20053;-76
2023/08/19 11:13:53;;;;;;;10.27;8.88;;;;;;;37.14;24.77;100588.97;4899789;29;20185;-78
2023/08/19 11:16:25;;;;;;;12.38;7.80;;;;;;;36.88;25.16;100603.50;4885533;29;20575;-77
2023/08/19 11:18:53;;;;;;;11.65;9.25;;;;;;;36.60;25.46;100609.19;4892494;29;20590;-79
2023/08/19 11:21:19;;;;;;;9.75;7.93;;;;;;;35.96;26.62;100633.94;4893298;29;20090;-77
2023/08/19 11:23:45;;;;;;;10.93;9.05;;;;;;;34.82;26.84;100559.75;4892389;29;20032;-74
2023/08/19 11:26:16;;;;;;;9.07;7.75;;;;;;;35.13;27.68;100640.50;4891822;29;20144;-74